• Join FlightAware (Why Join?)
  • Login
  • US Flag 
Gobble Gobble! 
07:30PM EST


 

Airport Tracker/Info


-or-


 

Live Flight TrackerFlight Track Log ✈ BER6124 ✈ 19-Jun-2013 ✈ EDDM / MUC - EDDK / CGN

Flight Track Log - Related Links

Times and Time Zones

All times are in EDT time to prevent confusion due to time zone crossing. See the BER6124 flight status page for this flight to view local times or setup timezone preferences in your user account.

Time Position Orientation Groundspeed Altitude Reporting Facility
EDT Latitude Longitude Course Direction KTS MPH feet Rate Location/Type
01:07PM 49.1150 10.4637 312° West  Level Estimated
01:08PM 49.1729 10.3604 311° West  Level Estimated
01:09PM 49.2308 10.2567 311° West  Level Estimated
01:10PM 49.2885 10.1529 310° West  Level Estimated
01:11PM 49.3461 10.0487 310° West  Level Estimated
01:12PM 49.4037 9.9444 310° West  Level Estimated
01:13PM 49.4612 9.8398 310° West  Level Estimated
01:14PM 49.5185 9.7349 310° West  Level Estimated
01:15PM 49.5758 9.6298 310° West  Level Estimated
01:16PM 49.6329 9.5245 310° West  Level Estimated
01:17PM 49.6900 9.4189 310° West  Level Estimated
01:18PM 49.7470 9.3131 310° West  Level Estimated
01:19PM 49.8039 9.2070 310° West  Level Estimated
01:20PM 49.8607 9.1006 310° West  Level Estimated
01:21PM 49.9174 8.9940 310° West  Level Estimated
01:22PM 49.9739 8.8872 309° West  Level Estimated
01:23PM 50.0304 8.7801 309° West  Level Estimated
01:24PM 50.0868 8.6728 309° West  Level Estimated
01:25PM 50.1431 8.5652 309° West  Level Estimated
01:26PM 50.1993 8.4573 309° West  Level Estimated
01:27PM 50.2554 8.3492 309° West  Level Estimated
01:28PM 50.3114 8.2409 309° West  Level Estimated
01:29PM 50.3673 8.1322 309° West  Level Estimated
01:30PM 50.4231 8.0234 309° West  Level Estimated
01:31PM 50.4788 7.9143 309° West  Level Estimated
01:32PM 50.5344 7.8049 309° West  Level Estimated
01:33PM 50.5898 7.6952 309° West  Level Estimated
01:34PM 50.6452 7.5853 309° West  Level Estimated
01:35PM 50.7005 7.4752 308° West  Level Estimated
01:36PM 50.7557 7.3648 308° West  Level Estimated
01:37PM 50.8107 7.2541 308° West  Level Estimated
01:38PM 50.8657 7.1432 308° West  Level Estimated
01:39PM 50.8659 7.1427 309° West  Level Estimated
01:40PM 50.8659 7.1427 140° Southeast  Level Estimated
01:41PM 50.8659 7.1427 140° Southeast  Level Estimated
01:42PM 50.8659 7.1427 140° Southeast  Level Estimated
01:43PM 50.8659 7.1427 140° Southeast  Level Estimated
01:44PM 50.8659 7.1427 140° Southeast  Level Estimated
01:45PM 50.8659 7.1427 140° Southeast  Level Estimated
01:46PM 50.8659 7.1427 140° Southeast  Level Estimated
01:47PM 50.8659 7.1427 140° Southeast  Level Estimated
01:48PM 50.8659 7.1427 140° Southeast  Level Estimated
01:49PM 50.8659 7.1427 140° Southeast  Level Estimated
01:50PM 50.8659 7.1427 140° Southeast  Level Estimated
01:51PM 50.8659 7.1427 140° Southeast  Level Estimated
01:52PM 50.8659 7.1427 140° Southeast  Level Estimated
01:53PM 50.8659 7.1427 140° Southeast  Level Estimated
01:54PM 50.8659 7.1427 140° Southeast  Level Estimated